Time;durP1;ratioP1;P1;durP2;ratioP2;P2;SDS_P1;SDS_P2;PMS_P1;PMS_P2;Temp;Humidity;BMP_temperature;BMP_pressure;BME280_temperature;BME280_humidity;BME280_pressure;Samples;Min_cycle;Max_cycle;Signal;HPM_P1;HPM_P2
2021/03/04 00:00:28;;;;;;;105.75;55.65;;;;;;;5.56;80.32;100281.34;1793643;78;21148;-72
2021/03/04 00:02:54;;;;;;;102.67;53.87;;;;;;;5.54;80.38;100275.86;1792345;78;21353;-72
2021/03/04 00:05:19;;;;;;;108.25;57.62;;;;;;;5.55;80.50;100269.68;1787923;78;26773;-73
2021/03/04 00:07:45;;;;;;;118.00;56.75;;;;;;;5.50;80.80;100262.64;1791993;78;25888;-72
2021/03/04 00:10:15;;;;;;;106.00;53.28;;;;;;;5.50;80.78;100253.02;1792918;78;28445;-73
2021/03/04 00:12:41;;;;;;;101.60;54.75;;;;;;;5.55;80.73;100244.80;1785915;78;21694;-73
2021/03/04 00:15:08;;;;;;;99.80;52.05;;;;;;;5.56;80.80;100232.03;1792224;78;22066;-74
2021/03/04 00:17:34;;;;;;;100.00;52.20;;;;;;;5.54;80.89;100240.02;1794068;78;21176;-72
2021/03/04 00:20:00;;;;;;;98.45;53.73;;;;;;;5.55;80.94;100230.39;1791376;78;24517;-72
2021/03/04 00:22:25;;;;;;;105.65;54.88;;;;;;;5.60;80.82;100233.47;1788134;78;28487;-72
2021/03/04 00:24:51;;;;;;;102.58;53.17;;;;;;;5.60;80.79;100228.72;1795217;78;27295;-74
2021/03/04 00:27:17;;;;;;;97.85;51.40;;;;;;;5.61;80.80;100222.50;1801051;78;22040;-72
2021/03/04 00:29:43;;;;;;;98.62;51.98;;;;;;;5.66;80.43;100215.95;1790065;78;27074;-77
2021/03/04 00:32:09;;;;;;;96.10;51.80;;;;;;;5.69;80.49;100211.77;1789076;78;25729;-72
2021/03/04 00:34:35;;;;;;;103.05;53.38;;;;;;;5.86;79.92;100215.66;1801738;78;28606;-72
2021/03/04 00:37:00;;;;;;;105.05;53.38;;;;;;;5.85;79.88;100205.30;1787638;78;21245;-73
2021/03/04 00:39:26;;;;;;;103.35;53.48;;;;;;;5.73;80.22;100205.34;1793896;78;21988;-73
2021/03/04 00:41:52;;;;;;;97.30;51.33;;;;;;;5.72;80.28;100200.23;1787846;78;26783;-73
2021/03/04 00:44:18;;;;;;;101.50;54.00;;;;;;;5.73;80.30;100194.86;1793200;78;25891;-73
2021/03/04 00:46:43;;;;;;;102.07;53.87;;;;;;;5.69;80.34;100191.30;1792767;78;28381;-73
2021/03/04 00:49:09;;;;;;;91.02;49.53;;;;;;;5.63;80.60;100187.87;1786725;78;26802;-73
2021/03/04 00:51:35;;;;;;;97.95;51.15;;;;;;;5.66;80.52;100183.20;1791983;78;22042;-73
2021/03/04 00:54:00;;;;;;;94.77;50.17;;;;;;;5.65;80.53;100188.56;1791625;78;26860;-73
2021/03/04 00:56:26;;;;;;;101.27;51.73;;;;;;;5.61;80.74;100182.75;1794308;78;25406;-73
2021/03/04 00:58:52;;;;;;;100.53;50.60;;;;;;;5.61;80.65;100176.20;1793987;78;28380;-73
2021/03/04 01:01:18;;;;;;;103.42;51.08;;;;;;;5.55;80.92;100176.69;1791027;78;27786;-74
2021/03/04 01:03:44;;;;;;;94.03;48.60;;;;;;;5.58;80.83;100175.95;1787460;78;22510;-73
2021/03/04 01:06:10;;;;;;;92.47;49.60;;;;;;;5.47;81.09;100168.14;1800994;78;26815;-73
2021/03/04 01:08:36;;;;;;;89.03;48.85;;;;;;;5.43;81.23;100158.03;1789638;78;22078;-74
2021/03/04 01:11:02;;;;;;;90.38;48.50;;;;;;;5.45;81.34;100155.63;1794114;78;28403;-74
2021/03/04 01:13:27;;;;;;;95.17;51.60;;;;;;;5.48;81.18;100150.62;1792252;78;27667;-73
2021/03/04 01:15:53;;;;;;;94.67;50.28;;;;;;;5.43;81.33;100146.24;1791611;78;22075;-74
2021/03/04 01:18:19;;;;;;;93.20;48.80;;;;;;;5.45;81.33;100140.39;1792338;78;27275;-74
2021/03/04 01:20:45;;;;;;;95.10;49.80;;;;;;;5.39;81.35;100139.09;1792117;78;25655;-74
2021/03/04 01:23:10;;;;;;;89.75;48.02;;;;;;;5.32;81.66;100137.45;1793480;78;28389;-73
2021/03/04 01:25:36;;;;;;;94.80;49.75;;;;;;;5.08;81.76;100101.44;1805456;78;26752;-73
2021/03/04 01:28:02;;;;;;;94.10;48.25;;;;;;;5.34;81.68;100131.60;1795322;78;21825;-73
2021/03/04 01:30:30;;;;;;;90.10;48.17;;;;;;;5.36;81.43;100127.55;1793575;78;26282;-73
2021/03/04 01:32:56;;;;;;;86.53;46.42;;;;;;;5.33;81.43;100126.03;1796266;78;21212;-73
2021/03/04 01:35:22;;;;;;;87.00;47.83;;;;;;;5.38;81.36;100116.02;1799388;78;28410;-73
2021/03/04 01:37:48;;;;;;;92.92;47.33;;;;;;;5.34;81.40;100109.83;1796275;78;26807;-73
2021/03/04 01:40:16;;;;;;;93.03;49.50;;;;;;;5.37;81.26;100114.33;1790377;78;21875;-73
2021/03/04 01:42:42;;;;;;;84.97;45.88;;;;;;;5.37;81.20;100107.79;1787807;78;21181;-73
2021/03/04 01:45:09;;;;;;;88.52;46.55;;;;;;;5.36;81.19;100110.53;1785302;79;26464;-73
2021/03/04 01:47:36;;;;;;;90.50;47.67;;;;;;;5.33;81.18;100107.70;1786900;78;21205;-73
2021/03/04 01:50:07;;;;;;;85.47;46.02;;;;;;;5.29;81.39;100106.77;1787073;78;21629;-73
2021/03/04 01:52:33;;;;;;;87.30;47.58;;;;;;;5.30;81.25;100095.31;1784016;78;21741;-73
2021/03/04 01:54:59;;;;;;;85.62;45.45;;;;;;;5.37;81.12;100101.24;1787682;78;27164;-73
2021/03/04 01:57:27;;;;;;;87.97;46.75;;;;;;;5.50;80.72;100097.17;1786370;78;21137;-73
2021/03/04 01:59:54;;;;;;;83.85;45.05;;;;;;;5.39;80.85;100090.19;1786234;79;21128;-74
2021/03/04 02:02:20;;;;;;;89.28;45.73;;;;;;;5.29;81.25;100095.80;1782421;78;21200;-73
2021/03/04 02:04:48;;;;;;;89.75;47.00;;;;;;;5.26;81.56;100081.64;1787493;78;21873;-72
2021/03/04 02:07:18;;;;;;;;;;;;;;;5.21;81.90;100075.95;1790120;78;21211;-73
2021/03/04 02:09:55;;;;;;;85.25;46.68;;;;;;;5.22;81.91;100082.87;1784818;78;20305;-72
2021/03/04 02:12:43;;;;;;;88.33;46.15;;;;;;;5.19;82.11;100071.33;1784284;78;21157;-72
2021/03/04 02:15:15;;;;;;;96.22;48.00;;;;;;;5.15;82.37;100071.22;1752567;80;21293;-73
2021/03/04 02:17:43;;;;;;;88.97;45.25;;;;;;;5.12;82.49;100068.36;1793844;78;21184;-73
2021/03/04 02:20:17;;;;;;;86.15;43.70;;;;;;;5.15;82.61;100062.05;1788242;78;21166;-73
2021/03/04 02:23:14;;;;;;;86.90;45.03;;;;;;;5.14;82.73;100061.69;1781013;78;21640;-73
2021/03/04 02:25:49;;;;;;;;;;;;;;;5.17;82.69;100052.28;1767819;78;21149;-72
2021/03/04 02:28:15;;;;;;;81.53;43.40;;;;;;;5.10;83.04;100045.41;1771946;78;20305;-72
2021/03/04 02:30:41;;;;;;;79.87;42.00;;;;;;;5.14;83.00;100048.60;1788953;78;21362;-72
2021/03/04 02:33:12;;;;;;;81.25;42.80;;;;;;;5.19;82.84;100046.47;1787513;78;26826;-72
2021/03/04 02:35:38;;;;;;;77.90;41.00;;;;;;;5.18;82.90;100044.80;1785766;78;21550;-72
2021/03/04 02:38:08;;;;;;;81.12;43.08;;;;;;;5.20;82.83;100038.95;1771691;80;28612;-72
2021/03/04 02:40:34;;;;;;;79.05;41.10;;;;;;;5.20;82.93;100040.25;1786794;78;21216;-72
2021/03/04 02:43:00;;;;;;;83.30;42.73;;;;;;;5.21;82.88;100034.08;1781868;78;21988;-72
2021/03/04 02:45:26;;;;;;;79.20;43.17;;;;;;;5.22;82.88;100043.60;1783584;79;21074;-72
2021/03/04 02:47:52;;;;;;;79.05;42.30;;;;;;;5.24;82.87;100036.45;1788541;78;21466;-73
2021/03/04 02:50:18;;;;;;;78.02;40.92;;;;;;;5.25;82.77;100034.64;1788481;78;28484;-73
2021/03/04 02:52:44;;;;;;;82.45;41.63;;;;;;;5.25;82.80;100031.57;1767162;79;21591;-73
2021/03/04 02:55:10;;;;;;;80.90;42.53;;;;;;;5.28;82.70;100021.30;1783071;79;21927;-73
2021/03/04 02:57:42;;;;;;;85.05;42.98;;;;;;;5.26;82.83;100016.20;1785042;78;21166;-73
2021/03/04 03:00:09;;;;;;;76.95;41.30;;;;;;;5.29;82.76;100018.56;1787395;78;21196;-73
2021/03/04 03:02:36;;;;;;;;;;;;;;;5.32;82.59;100015.70;1793284;78;21211;-72
2021/03/04 03:05:04;;;;;;;82.60;40.25;;;;;;;5.28;82.69;100009.03;1790012;78;20295;-72
2021/03/04 03:07:29;;;;;;;70.50;38.35;;;;;;;5.28;82.83;100010.83;1771775;78;21857;-72
2021/03/04 03:09:55;;;;;;;79.80;41.18;;;;;;;5.28;82.83;100007.73;1790742;78;26839;-74
2021/03/04 03:12:21;;;;;;;72.10;37.85;;;;;;;5.34;82.55;100003.30;1786606;78;25473;-72
2021/03/04 03:14:47;;;;;;;72.45;39.50;;;;;;;5.41;82.28;100003.64;1787343;78;28804;-73
2021/03/04 03:17:12;;;;;;;76.35;39.65;;;;;;;5.37;82.61;100006.97;1792022;78;26712;-73
2021/03/04 03:19:38;;;;;;;76.35;40.50;;;;;;;5.38;82.55;99999.97;1789066;78;21892;-73
2021/03/04 03:22:06;;;;;;;70.90;37.25;;;;;;;5.46;82.27;99998.03;1787622;78;26845;-73
2021/03/04 03:24:31;;;;;;;71.60;37.58;;;;;;;5.49;82.08;99995.16;1786331;78;21212;-73
2021/03/04 03:26:57;;;;;;;71.28;36.70;;;;;;;5.53;81.85;100000.02;1787769;78;28333;-73
2021/03/04 03:29:23;;;;;;;72.05;38.17;;;;;;;5.52;81.96;99992.28;1786160;78;26811;-73
2021/03/04 03:31:49;;;;;;;72.65;39.42;;;;;;;5.55;81.91;99992.03;1787233;78;21277;-73
2021/03/04 03:34:15;;;;;;;75.60;38.23;;;;;;;5.54;81.91;99983.32;1792538;78;21207;-74
2021/03/04 03:36:41;;;;;;;69.23;38.53;;;;;;;5.51;82.01;99978.83;1790400;78;24691;-73
2021/03/04 03:39:08;;;;;;;69.72;37.48;;;;;;;5.56;81.90;99979.27;1793291;78;28309;-73
2021/03/04 03:41:35;;;;;;;71.07;37.83;;;;;;;5.57;81.81;99978.31;1786302;80;22344;-73
2021/03/04 03:44:01;;;;;;;76.62;37.03;;;;;;;5.61;81.65;99966.63;1781358;78;21299;-73
2021/03/04 03:46:31;;;;;;;69.77;36.55;;;;;;;5.59;81.54;99967.22;1786477;79;26414;-73
2021/03/04 03:48:57;;;;;;;70.08;37.78;;;;;;;5.54;81.83;99966.78;1783288;78;21152;-73
2021/03/04 03:51:23;;;;;;;69.82;37.85;;;;;;;5.51;82.06;99962.63;1780543;78;21138;-73
2021/03/04 03:53:49;;;;;;;73.92;38.15;;;;;;;5.45;82.08;99961.00;1781888;78;26770;-74
2021/03/04 03:56:15;;;;;;;69.53;38.38;;;;;;;5.49;82.15;99953.25;1786980;79;21903;-73
2021/03/04 03:58:40;;;;;;;74.47;37.90;;;;;;;5.48;82.14;99948.97;1788787;78;26755;-73
2021/03/04 04:01:06;;;;;;;70.42;38.35;;;;;;;5.45;82.19;99941.36;1785678;79;25727;-73
2021/03/04 04:03:32;;;;;;;73.57;38.25;;;;;;;5.32;82.51;99947.62;1791537;78;28324;-74
2021/03/04 04:05:58;;;;;;;68.92;36.83;;;;;;;5.33;82.59;99946.67;1784210;79;26744;-73
2021/03/04 04:08:25;;;;;;;67.65;36.58;;;;;;;5.38;82.52;99948.42;1788045;78;21904;-72
2021/03/04 04:10:51;;;;;;;;;;;;;;;5.38;82.40;99941.88;1779775;79;21479;-74
2021/03/04 04:13:18;;;;;;;71.02;36.95;;;;;;;5.37;82.55;99940.20;1786712;78;20206;-74
2021/03/04 04:15:44;;;;;;;70.42;36.93;;;;;;;5.44;82.31;99939.69;1778703;79;21173;-74
2021/03/04 04:18:09;;;;;;;74.03;37.20;;;;;;;5.48;82.12;99934.56;1775946;78;27350;-74
2021/03/04 04:20:35;;;;;;;69.35;37.75;;;;;;;5.48;82.13;99924.08;1786399;78;22354;-74
2021/03/04 04:23:01;;;;;;;67.75;36.42;;;;;;;5.51;82.03;99925.95;1785807;78;21235;-74
2021/03/04 04:25:27;;;;;;;68.95;36.77;;;;;;;5.55;81.79;99929.17;1786119;79;25332;-74
2021/03/04 04:27:55;;;;;;;71.67;37.80;;;;;;;5.50;81.84;99926.94;1787158;78;21132;-74
2021/03/04 04:30:25;;;;;;;73.67;37.85;;;;;;;5.43;82.11;99924.95;1786681;79;21556;-74
2021/03/04 04:32:51;;;;;;;81.85;39.70;;;;;;;5.30;82.59;99920.74;1778481;78;21270;-73
2021/03/04 04:35:17;;;;;;;68.97;36.13;;;;;;;5.15;83.23;99914.98;1763620;80;21790;-74
2021/03/04 04:37:43;;;;;;;71.55;38.13;;;;;;;5.15;83.38;99914.16;1781731;78;25288;-74
2021/03/04 04:40:09;;;;;;;72.45;37.83;;;;;;;5.19;83.35;99912.96;1785991;78;28394;-73
2021/03/04 04:42:35;;;;;;;74.65;40.23;;;;;;;5.33;82.90;99913.94;1791339;78;22078;-73
2021/03/04 04:45:02;;;;;;;73.40;37.95;;;;;;;5.32;82.97;99916.20;1792275;78;21957;-74
2021/03/04 04:47:27;;;;;;;74.92;39.33;;;;;;;5.23;82.94;99904.36;1787375;78;21236;-74
2021/03/04 04:49:53;;;;;;;74.80;39.53;;;;;;;5.12;83.52;99900.02;1785833;79;24802;-73
2021/03/04 04:52:19;;;;;;;73.55;40.03;;;;;;;5.13;83.67;99896.45;1787556;78;28462;-72
2021/03/04 04:54:46;;;;;;;74.27;39.00;;;;;;;5.13;83.76;99906.44;1789935;78;26829;-72
2021/03/04 04:57:12;;;;;;;66.10;36.98;;;;;;;5.17;83.54;99901.77;1787873;78;21612;-72
2021/03/04 04:59:38;;;;;;;77.30;39.38;;;;;;;5.22;83.35;99912.70;1787095;78;21244;-72
2021/03/04 05:02:04;;;;;;;74.37;38.20;;;;;;;5.14;83.83;99907.25;1785549;78;24726;-73
2021/03/04 05:04:29;;;;;;;75.20;38.95;;;;;;;5.13;83.85;99899.08;1789755;78;28274;-73
2021/03/04 05:06:55;;;;;;;72.95;38.80;;;;;;;5.16;83.90;99896.20;1787696;78;27292;-73
2021/03/04 05:09:21;;;;;;;68.45;37.65;;;;;;;5.16;83.63;99898.82;1788144;78;22255;-72
2021/03/04 05:11:46;;;;;;;71.57;38.48;;;;;;;5.09;83.96;99887.19;1789603;78;26848;-72
2021/03/04 05:14:12;;;;;;;74.40;38.70;;;;;;;5.11;83.92;99884.80;1788360;78;23828;-72
2021/03/04 05:16:38;;;;;;;71.65;39.15;;;;;;;5.04;84.06;99879.23;1790715;78;28252;-72
2021/03/04 05:19:04;;;;;;;72.08;39.23;;;;;;;5.07;84.20;99876.02;1785456;78;26777;-72
2021/03/04 05:21:29;;;;;;;67.25;35.80;;;;;;;5.11;84.04;99871.72;1784927;78;21904;-72
2021/03/04 05:23:55;;;;;;;71.82;39.63;;;;;;;5.08;84.23;99869.81;1796947;78;25762;-72
2021/03/04 05:26:21;;;;;;;72.72;38.10;;;;;;;5.07;84.52;99876.02;1796167;78;25335;-71
2021/03/04 05:28:47;;;;;;;70.97;38.38;;;;;;;5.00;84.66;99869.98;1787224;78;28409;-72
2021/03/04 05:31:12;;;;;;;65.35;36.45;;;;;;;4.98;84.96;99864.03;1786884;78;27344;-71
2021/03/04 05:33:38;;;;;;;68.65;36.33;;;;;;;4.99;84.94;99857.85;1784975;78;23053;-72
2021/03/04 05:36:05;;;;;;;72.23;38.13;;;;;;;4.98;85.19;99848.33;1791584;78;26189;-72
2021/03/04 05:38:30;;;;;;;67.30;37.10;;;;;;;5.05;85.03;99849.98;1795172;78;21638;-72
2021/03/04 05:40:57;;;;;;;70.90;35.75;;;;;;;4.99;85.25;99846.08;1789030;78;28324;-73
2021/03/04 05:43:22;;;;;;;73.60;37.73;;;;;;;5.11;84.95;99844.69;1787266;78;21134;-73
2021/03/04 05:45:49;;;;;;;75.65;38.85;;;;;;;5.14;84.92;99853.14;1787530;78;21948;-73
2021/03/04 05:48:19;;;;;;;67.97;36.40;;;;;;;5.10;85.02;99851.73;1786187;78;21196;-72
2021/03/04 05:50:51;;;;;;;71.53;38.33;;;;;;;5.10;85.00;99843.05;1786971;78;21212;-74
2021/03/04 05:53:20;;;;;;;72.12;38.38;;;;;;;5.11;85.08;99846.85;1785610;78;21162;-74
2021/03/04 05:55:46;;;;;;;68.85;37.55;;;;;;;5.09;85.25;99847.93;1789720;80;21581;-73
2021/03/04 05:58:12;;;;;;;69.17;36.98;;;;;;;5.14;85.12;99847.05;1786464;78;21251;-73
2021/03/04 06:00:40;;;;;;;70.05;38.45;;;;;;;5.22;84.83;99844.64;1793486;78;26888;-74
2021/03/04 06:03:06;;;;;;;69.42;36.68;;;;;;;5.34;84.52;99848.81;1786380;78;21177;-73
2021/03/04 06:05:33;;;;;;;68.80;37.05;;;;;;;5.32;84.45;99850.74;1790124;78;28697;-73
2021/03/04 06:08:00;;;;;;;71.07;36.85;;;;;;;5.30;84.58;99847.44;1785525;78;21266;-73
2021/03/04 06:10:28;;;;;;;;;;;;;;;5.44;84.44;99843.65;1786995;78;22260;-72
2021/03/04 06:12:53;;;;;;;;;;;;;;;5.32;84.56;99859.91;1789007;78;20345;-73
2021/03/04 06:15:21;;;;;;;69.00;35.80;;;;;;;5.26;84.95;99851.26;1786349;80;20225;-73
2021/03/04 06:17:59;;;;;;;66.92;35.35;;;;;;;5.23;85.15;99855.45;1770516;78;21657;-73
2021/03/04 06:20:39;;;;;;;64.45;35.35;;;;;;;5.23;85.27;99849.39;1788119;79;21631;-72
2021/03/04 06:23:05;;;;;;;66.00;34.83;;;;;;;5.27;85.32;99856.86;1792141;78;21206;-72
2021/03/04 06:25:30;;;;;;;64.00;35.03;;;;;;;5.31;85.11;99866.09;1790672;78;26723;-73
2021/03/04 06:27:57;;;;;;;66.30;36.40;;;;;;;5.36;85.26;99864.39;1788646;78;25220;-72
2021/03/04 06:30:23;;;;;;;64.92;35.15;;;;;;;5.35;85.40;99850.48;1794928;78;21208;-73
2021/03/04 06:33:08;;;;;;;67.78;35.98;;;;;;;5.37;85.43;99845.94;1790691;78;21229;-73
2021/03/04 06:35:42;;;;;;;68.22;36.33;;;;;;;5.39;85.51;99854.97;1787799;79;21226;-72
2021/03/04 06:38:22;;;;;;;68.65;36.23;;;;;;;5.40;85.66;99856.16;1790392;78;21761;-72
2021/03/04 06:40:52;;;;;;;64.85;35.20;;;;;;;5.43;85.76;99859.49;1789298;78;21201;-74
2021/03/04 06:43:21;;;;;;;70.20;36.88;;;;;;;5.45;85.81;99858.38;1780047;80;21099;-74
2021/03/04 06:45:47;;;;;;;66.77;36.23;;;;;;;5.45;85.99;99854.95;1781689;80;21142;-73
2021/03/04 06:48:15;;;;;;;67.03;36.50;;;;;;;5.51;85.89;99860.97;1781996;79;22175;-73
2021/03/04 06:50:49;;;;;;;68.95;35.50;;;;;;;5.49;86.12;99856.35;1782538;78;21431;-74
2021/03/04 06:53:20;;;;;;;72.97;37.33;;;;;;;5.59;85.94;99879.47;1778325;80;21165;-74
2021/03/04 06:56:05;;;;;;;67.85;36.95;;;;;;;5.61;85.98;99860.55;1767138;79;21153;-72
2021/03/04 06:58:33;;;;;;;66.47;35.08;;;;;;;5.67;86.01;99853.47;1771676;78;21182;-73
2021/03/04 07:01:12;;;;;;;67.95;36.10;;;;;;;5.77;85.78;99846.13;1775034;80;21914;-73
2021/03/04 07:03:47;;;;;;;69.12;37.03;;;;;;;5.68;86.15;99851.67;1772689;78;21603;-74
2021/03/04 07:06:14;;;;;;;67.42;36.05;;;;;;;5.70;86.27;99854.52;1767308;79;21643;-72
2021/03/04 07:08:42;;;;;;;74.07;39.03;;;;;;;5.72;86.34;99872.23;1776987;79;21191;-73
2021/03/04 07:11:10;;;;;;;72.12;38.33;;;;;;;5.57;86.40;99831.14;1779579;79;21149;-73
2021/03/04 07:13:38;;;;;;;74.00;38.98;;;;;;;5.81;86.46;99871.09;1773816;78;21218;-73
2021/03/04 07:16:08;;;;;;;;;;;;;;;5.78;86.58;99854.31;1776773;80;21213;-75
2021/03/04 07:18:40;;;;;;;74.77;39.27;;;;;;;5.80;86.79;99866.83;1770403;78;20577;-74
2021/03/04 07:21:10;;;;;;;71.67;37.35;;;;;;;5.82;86.87;99859.66;1768495;79;21178;-73
2021/03/04 07:23:39;;;;;;;69.35;36.68;;;;;;;5.80;87.14;99838.82;1770079;78;21241;-73
2021/03/04 07:26:05;;;;;;;71.70;37.20;;;;;;;5.75;87.31;99856.25;1773283;78;21343;-71
2021/03/04 07:28:32;;;;;;;65.72;36.15;;;;;;;5.77;87.50;99846.95;1765943;80;21113;-73
2021/03/04 07:30:58;;;;;;;72.55;38.40;;;;;;;5.88;87.22;99863.05;1778622;80;21117;-73
2021/03/04 07:33:24;;;;;;;69.40;37.67;;;;;;;5.84;87.64;99852.48;1778590;80;21558;-73
2021/03/04 07:35:49;;;;;;;71.15;38.63;;;;;;;5.86;87.50;99861.05;1778496;80;26697;-73
2021/03/04 07:38:24;;;;;;;73.45;38.75;;;;;;;5.73;88.00;99850.33;1772388;78;22108;-74
2021/03/04 07:41:11;;;;;;;69.12;38.02;;;;;;;5.83;87.98;99853.46;1773216;79;21153;-73
2021/03/04 07:43:51;;;;;;;70.50;38.98;;;;;;;5.87;88.12;99874.48;1772400;78;21185;-73
2021/03/04 07:46:38;;;;;;;76.77;38.67;;;;;;;5.81;88.40;99857.98;1771866;79;22206;-74
2021/03/04 07:49:07;;;;;;;68.40;36.17;;;;;;;5.85;88.51;99856.27;1779774;78;21736;-73
2021/03/04 07:51:47;;;;;;;71.70;38.70;;;;;;;5.83;88.49;99859.52;1777661;80;21219;-73
2021/03/04 07:54:17;;;;;;;76.62;39.42;;;;;;;5.87;88.52;99849.59;1777742;78;21154;-73
2021/03/04 07:56:43;;;;;;;72.95;38.67;;;;;;;5.86;88.45;99857.13;1783556;79;21208;-73
2021/03/04 07:59:13;;;;;;;71.35;38.50;;;;;;;5.84;88.51;99853.78;1778269;78;28803;-72
2021/03/04 08:01:43;;;;;;;65.10;37.25;;;;;;;5.86;88.29;99832.23;1786766;79;21227;-73
2021/03/04 08:04:21;;;;;;;75.52;39.65;;;;;;;5.95;88.05;99847.16;1778262;78;21762;-74
2021/03/04 08:06:49;;;;;;;75.03;38.92;;;;;;;5.91;88.29;99853.61;1774278;79;21192;-74
2021/03/04 08:09:33;;;;;;;73.02;38.75;;;;;;;5.81;87.99;99863.22;1776453;78;21263;-73
2021/03/04 08:12:15;;;;;;;70.62;38.80;;;;;;;5.88;88.31;99846.02;1776445;79;21193;-77
2021/03/04 08:14:55;;;;;;;68.40;37.63;;;;;;;5.89;88.31;99862.10;1774566;79;21166;-72
2021/03/04 08:17:20;;;;;;;76.37;41.00;;;;;;;5.90;88.15;99845.39;1773931;78;21222;-71
2021/03/04 08:19:47;;;;;;;74.00;41.08;;;;;;;5.79;88.26;99842.89;1773641;79;26915;-73
2021/03/04 08:22:21;;;;;;;74.20;40.67;;;;;;;5.90;87.98;99857.19;1780205;79;21170;-72
2021/03/04 08:25:05;;;;;;;72.17;40.15;;;;;;;5.91;87.40;99847.06;1780002;79;21448;-72
2021/03/04 08:27:47;;;;;;;80.45;42.53;;;;;;;5.83;87.43;99850.84;1781983;78;21246;-73
2021/03/04 08:30:20;;;;;;;72.42;40.88;;;;;;;5.83;87.20;99856.08;1775174;79;21313;-73
2021/03/04 08:32:48;;;;;;;76.22;43.92;;;;;;;5.81;86.64;99859.30;1750726;80;21214;-73
2021/03/04 08:35:26;;;;;;;79.20;44.35;;;;;;;5.72;86.56;99868.30;1766772;78;21225;-72
2021/03/04 08:38:08;;;;;;;77.55;43.52;;;;;;;5.70;86.39;99857.14;1773535;79;21200;-74
2021/03/04 08:41:05;;;;;;;75.42;42.70;;;;;;;5.68;86.70;99856.42;1744846;78;21641;-74
2021/03/04 08:43:31;;;;;;;74.25;43.20;;;;;;;5.63;86.61;99890.05;1771412;78;22367;-74
2021/03/04 08:46:03;;;;;;;81.15;45.10;;;;;;;5.63;86.54;99863.85;1769916;79;27374;-73
2021/03/04 08:48:29;;;;;;;80.85;44.25;;;;;;;5.55;86.62;99867.61;1770004;78;21182;-73
2021/03/04 08:51:00;;;;;;;83.07;45.78;;;;;;;5.54;86.53;99877.73;1770283;79;28537;-74
2021/03/04 08:53:31;;;;;;;76.70;43.23;;;;;;;5.43;86.58;99873.89;1771108;78;21128;-76
2021/03/04 08:56:10;;;;;;;73.95;42.43;;;;;;;5.61;86.17;99867.09;1768914;79;21368;-74
2021/03/04 08:58:42;;;;;;;76.33;44.83;;;;;;;5.57;86.31;99882.71;1740504;79;25509;-72
2021/03/04 09:01:07;;;;;;;77.40;44.20;;;;;;;5.61;86.26;99864.47;1769032;78;21241;-74
2021/03/04 09:03:38;;;;;;;74.12;43.33;;;;;;;5.54;86.40;99884.28;1768530;78;28407;-74
2021/03/04 09:06:08;;;;;;;75.65;42.88;;;;;;;5.62;85.68;99876.59;1771845;78;21218;-74
2021/03/04 09:08:35;;;;;;;73.20;41.13;;;;;;;5.61;85.32;99878.87;1770126;79;21854;-76
2021/03/04 09:11:01;;;;;;;;;;;;;;;5.54;84.32;99882.97;1778287;79;21150;-72
2021/03/04 09:13:27;;;;;;;65.32;39.80;;;;;;;5.48;84.12;99926.70;1768343;78;20195;-73
2021/03/04 09:15:58;;;;;;;69.77;41.28;;;;;;;5.47;84.16;99884.44;1774040;79;28406;-73
2021/03/04 09:18:25;;;;;;;70.80;42.10;;;;;;;5.55;83.98;99893.81;1770953;79;21165;-73
2021/03/04 09:20:53;;;;;;;67.35;41.90;;;;;;;5.50;83.58;99905.13;1770502;79;22045;-71
2021/03/04 09:23:22;;;;;;;66.15;39.40;;;;;;;5.46;83.48;99893.28;1762893;79;21241;-73
2021/03/04 09:25:47;;;;;;;65.42;39.20;;;;;;;5.47;82.87;99919.80;1773213;78;21193;-74
2021/03/04 09:28:17;;;;;;;66.00;40.85;;;;;;;5.39;82.95;99901.64;1777554;78;28582;-73
2021/03/04 09:30:42;;;;;;;69.40;40.40;;;;;;;5.31;83.13;99911.91;1773166;78;21126;-72
2021/03/04 09:33:18;;;;;;;65.15;37.60;;;;;;;5.30;83.52;99903.73;1772375;78;22047;-73
2021/03/04 09:36:04;;;;;;;74.05;42.00;;;;;;;5.28;83.72;99901.70;1766737;78;21680;-74
2021/03/04 09:38:32;;;;;;;72.32;42.62;;;;;;;5.30;83.65;99903.73;1746963;79;34014;-75
2021/03/04 09:41:17;;;;;;;72.42;43.30;;;;;;;5.29;84.06;99921.69;1770171;79;21229;-74
2021/03/04 09:43:46;;;;;;;73.67;42.78;;;;;;;5.28;84.45;99914.78;1771161;79;21206;-76
2021/03/04 09:46:34;;;;;;;75.28;43.08;;;;;;;5.22;83.87;99914.02;1775754;79;21458;-77
2021/03/04 09:49:13;;;;;;;75.65;43.17;;;;;;;5.19;83.26;99902.49;1781129;78;21185;-77
2021/03/04 09:51:40;;;;;;;65.20;39.23;;;;;;;5.07;83.07;99902.20;1776032;78;21165;-75
2021/03/04 09:54:07;;;;;;;;;;;;;;;5.07;81.66;99937.53;1779854;78;21194;-76
2021/03/04 09:56:32;;;;;;;70.13;41.47;;;;;;;4.93;82.43;99919.03;1774866;79;20290;-75
2021/03/04 09:58:59;;;;;;;73.87;44.77;;;;;;;4.99;82.56;99906.27;1779244;79;21847;-77
2021/03/04 10:01:36;;;;;;;78.17;47.30;;;;;;;5.14;83.11;99912.48;1774275;79;21126;-77
2021/03/04 10:04:06;;;;;;;73.40;44.50;;;;;;;5.11;83.26;99915.36;1776440;78;21796;-75
2021/03/04 10:06:37;;;;;;;76.75;45.95;;;;;;;5.00;83.53;99951.12;1776024;79;21145;-77
2021/03/04 10:09:05;;;;;;;78.70;47.30;;;;;;;4.89;83.30;99943.28;1775829;78;21532;-78
2021/03/04 10:11:34;;;;;;;79.00;47.55;;;;;;;4.85;83.78;99926.20;1775973;78;21252;-78
2021/03/04 10:14:12;;;;;;;76.25;46.05;;;;;;;4.98;83.60;99921.60;1775226;78;21174;-77
2021/03/04 10:16:38;;;;;;;80.10;45.83;;;;;;;4.91;82.86;99932.70;1774811;78;21194;-77
2021/03/04 10:19:05;;;;;;;77.47;46.70;;;;;;;4.91;82.41;99930.93;1775876;78;21674;-76
2021/03/04 10:21:31;;;;;;;70.90;43.83;;;;;;;5.02;81.53;99926.95;1768937;78;21186;-77
2021/03/04 10:23:57;;;;;;;77.40;44.67;;;;;;;4.97;81.31;99935.66;1775422;79;22376;-77
2021/03/04 10:26:23;;;;;;;73.20;42.98;;;;;;;4.89;81.36;99938.05;1775132;78;27036;-77
2021/03/04 10:28:49;;;;;;;72.43;43.50;;;;;;;4.79;80.68;99965.45;1780356;79;25735;-78
2021/03/04 10:31:15;;;;;;;71.67;42.88;;;;;;;4.79;80.64;99952.86;1776083;78;21827;-75
2021/03/04 10:33:41;;;;;;;74.40;43.83;;;;;;;4.66;80.54;99956.45;1778560;79;27181;-78
2021/03/04 10:36:06;;;;;;;72.92;43.65;;;;;;;4.61;80.73;99942.89;1782426;78;22182;-75
2021/03/04 10:38:32;;;;;;;69.85;42.60;;;;;;;4.45;81.09;99984.30;1775003;79;26196;-76
2021/03/04 10:40:58;;;;;;;74.63;44.90;;;;;;;4.34;81.44;99962.11;1775144;78;25989;-76
2021/03/04 10:43:24;;;;;;;67.35;43.40;;;;;;;4.37;81.74;99955.33;1778723;78;28929;-77
2021/03/04 10:45:50;;;;;;;73.30;42.43;;;;;;;4.48;81.34;99961.35;1778936;78;26665;-76
2021/03/04 10:48:16;;;;;;;103.60;71.17;;;;;;;4.46;80.83;99959.83;1767162;79;21848;-75
2021/03/04 10:50:41;;;;;;;83.05;52.78;;;;;;;4.36;80.92;99949.25;1775216;80;25662;-76
2021/03/04 10:53:07;;;;;;;72.60;43.17;;;;;;;4.39;80.96;99944.27;1776261;78;24076;-74
2021/03/04 10:55:33;;;;;;;69.15;40.63;;;;;;;4.44;81.01;99946.03;1776716;79;28289;-76
2021/03/04 10:57:59;;;;;;;65.50;39.50;;;;;;;4.40;81.00;99944.62;1774211;78;26853;-75
2021/03/04 11:00:24;;;;;;;68.90;39.58;;;;;;;4.30;81.28;99950.58;1785965;78;21872;-76
2021/03/04 11:02:50;;;;;;;70.47;40.90;;;;;;;4.41;81.13;99948.88;1777503;78;27300;-76
2021/03/04 11:05:17;;;;;;;68.07;39.17;;;;;;;4.45;81.10;99938.06;1779234;79;23779;-75
2021/03/04 11:07:42;;;;;;;65.72;40.00;;;;;;;4.37;81.12;99947.48;1780678;78;21189;-76
2021/03/04 11:10:09;;;;;;;62.65;38.08;;;;;;;4.53;80.98;99941.38;1778060;78;26703;-77
2021/03/04 11:12:36;;;;;;;66.73;39.33;;;;;;;4.58;80.52;99950.98;1775564;78;21381;-76
2021/03/04 11:15:02;;;;;;;63.70;38.08;;;;;;;4.46;80.68;99954.61;1777696;79;21507;-75
2021/03/04 11:17:28;;;;;;;74.37;38.23;;;;;;;4.38;80.80;99954.36;1774479;78;21465;-75
2021/03/04 11:19:54;;;;;;;63.52;38.63;;;;;;;4.45;80.82;99945.09;1778405;79;28353;-75
2021/03/04 11:22:19;;;;;;;68.78;39.18;;;;;;;4.52;80.63;99944.11;1774787;78;27022;-74
2021/03/04 11:24:48;;;;;;;66.40;39.75;;;;;;;4.43;80.75;99941.77;1778989;79;21378;-73
2021/03/04 11:27:15;;;;;;;67.78;39.90;;;;;;;4.47;80.99;99940.09;1779374;78;21307;-74
2021/03/04 11:29:46;;;;;;;64.10;38.63;;;;;;;4.48;81.08;99946.15;1776350;79;21831;-73